CheckWX is a tool to help pilots better visualize weather data.  It is not intended as a substitute for an official pre-flight weather briefing.

17:35:19 UTC

KAIO METAR
Atlantic Municipal Airport
Atlantic, Iowa, USA
Current

20 mins ago

KAIO 291715Z AUTO 33016KT 10SM CLR 21/09 A3016 RMK AO2
Observed
May-29 @ 17:15 UTC
Wind
  • 330° at 16 KTS
Visibility
Flight Rules
VFR
Cloud Levels
  • Clear skies
Temperature
21°C / 70°F
Dewpoint
C / 48°F
Humidity
46%
Altimeter
30.16" Hg
Pressure
1021.32 hPa
Previous

40 mins ago

KAIO 291655Z AUTO 31013KT 10SM CLR 20/09 A3016 RMK AO2
Observed
May-29 @ 16:55 UTC
Wind
  • 310° at 13 KTS
Visibility
Flight Rules
VFR
Cloud Levels
  • Clear skies
Temperature
20°C / 68°F
Dewpoint
C / 48°F
Humidity
49%
Altimeter
30.16" Hg
Pressure
1021.32 hPa
Previous

60 mins ago

KAIO 291635Z AUTO 34012G19KT 10SM CLR 20/09 A3016 RMK AO2
Observed
May-29 @ 16:35 UTC
Wind
  • 340° at 12 KTS
  • Gusting to 19 KTS
Visibility
Flight Rules
VFR
Cloud Levels
  • Clear skies
Temperature
20°C / 68°F
Dewpoint
C / 48°F
Humidity
49%
Altimeter
30.16" Hg
Pressure
1021.32 hPa